createdAt,value
2019-04-26T00:00:35.787Z,30.20
2019-04-26T00:03:14.192Z,34.60
2019-04-26T00:05:50.357Z,35.63
2019-04-26T00:08:26.251Z,36.33
2019-04-26T00:11:03.802Z,33.50
2019-04-26T00:14:03.006Z,35.92
2019-04-26T00:16:47.981Z,46.02
2019-04-26T00:19:23.927Z,36.70
2019-04-26T00:22:00.190Z,33.13
2019-04-26T00:24:36.566Z,35.90
2019-04-26T00:27:12.710Z,33.18
2019-04-26T00:29:49.087Z,40.90
2019-04-26T00:32:25.143Z,36.65
2019-04-26T00:35:01.212Z,38.13
2019-04-26T00:37:37.172Z,40.45
2019-04-26T00:40:14.418Z,38.13
2019-04-26T00:42:52.118Z,40.30
2019-04-26T00:45:30.972Z,43.15
2019-04-26T00:48:07.648Z,42.20
2019-04-26T00:50:44.988Z,39.48
2019-04-26T00:53:22.204Z,42.75
2019-04-26T00:56:00.141Z,41.83
2019-04-26T00:58:37.208Z,38.80
2019-04-26T01:01:15.088Z,42.95
2019-04-26T01:03:52.090Z,34.67
2019-04-26T01:06:29.685Z,32.95
2019-04-26T01:09:07.076Z,36.68
2019-04-26T01:11:44.596Z,42.10
2019-04-26T01:14:20.480Z,39.05
2019-04-26T01:16:56.443Z,41.55
2019-04-26T01:19:33.425Z,40.63
2019-04-26T01:22:12.274Z,39.58
2019-04-26T01:24:49.985Z,37.50
2019-04-26T01:27:28.442Z,42.48
2019-04-26T01:30:10.178Z,35.73
2019-04-26T01:32:46.954Z,35.63
2019-04-26T01:35:24.173Z,37.35
2019-04-26T01:38:02.758Z,31.97
2019-04-26T01:40:42.483Z,38.60
2019-04-26T01:43:21.666Z,28.30
2019-04-26T01:46:02.914Z,36.50
2019-04-26T01:49:01.206Z,37.53
2019-04-26T01:51:48.931Z,36.17
2019-04-26T01:54:29.940Z,35.00
2019-04-26T01:57:06.472Z,37.65
2019-04-26T01:59:46.010Z,28.15
2019-04-26T02:02:32.617Z,34.50
2019-04-26T02:05:10.622Z,33.80
2019-04-26T02:07:46.900Z,38.28
2019-04-26T02:10:26.556Z,36.30
2019-04-26T02:13:02.691Z,37.93
2019-04-26T02:15:38.957Z,34.60
2019-04-26T02:18:14.919Z,27.87
2019-04-26T02:20:54.861Z,35.75
2019-04-26T02:23:38.597Z,33.88
2019-04-26T02:26:34.849Z,31.55
2019-04-26T02:29:13.963Z,32.78
2019-04-26T02:31:54.627Z,32.65
2019-04-26T02:34:35.227Z,33.67
2019-04-26T02:37:13.280Z,32.23
2019-04-26T02:39:49.665Z,29.82
2019-04-26T02:42:30.957Z,27.20
2019-04-26T02:45:20.840Z,28.83
2019-04-26T02:48:16.362Z,27.20
2019-04-26T02:50:56.823Z,27.87
2019-04-26T02:53:47.510Z,31.27
2019-04-26T02:56:30.297Z,26.05
2019-04-26T02:59:12.334Z,29.12
2019-04-26T03:01:50.694Z,29.15
2019-04-26T03:04:28.929Z,30.12
2019-04-26T03:07:09.007Z,36.15
2019-04-26T03:09:48.044Z,33.92
2019-04-26T03:12:26.965Z,34.40
2019-04-26T03:15:14.058Z,28.38
2019-04-26T03:17:56.927Z,30.35
2019-04-26T03:20:40.053Z,29.42
2019-04-26T03:23:20.193Z,30.80
2019-04-26T03:26:17.220Z,30.27
2019-04-26T03:29:02.090Z,23.05
2019-04-26T03:31:53.406Z,30.57
2019-04-26T03:34:43.367Z,22.93
2019-04-26T03:37:40.469Z,24.55
2019-04-26T03:40:38.945Z,23.83
2019-04-26T03:43:27.232Z,28.38
2019-04-26T03:46:24.219Z,31.48
2019-04-26T03:49:23.840Z,32.15
2019-04-26T03:52:19.562Z,30.88
2019-04-26T03:55:02.568Z,30.43
2019-04-26T03:57:47.025Z,26.68
2019-04-26T04:00:29.638Z,31.42
2019-04-26T04:03:26.835Z,29.95
2019-04-26T04:06:05.104Z,32.35
2019-04-26T04:08:48.164Z,22.90
2019-04-26T04:11:40.850Z,30.97
2019-04-26T04:14:34.964Z,24.63
2019-04-26T04:17:15.417Z,29.48
2019-04-26T04:20:13.710Z,26.82
2019-04-26T04:23:18.446Z,24.87
2019-04-26T04:25:56.365Z,28.12
2019-04-26T04:28:36.063Z,28.50
2019-04-26T04:31:35.254Z,21.10
2019-04-26T04:34:32.242Z,27.62
2019-04-26T04:37:11.151Z,26.05
2019-04-26T04:39:59.606Z,23.77
2019-04-26T04:42:58.414Z,23.35
2019-04-26T04:46:10.674Z,23.40
2019-04-26T04:49:25.530Z,26.77
2019-04-26T04:52:13.300Z,23.85
2019-04-26T04:55:06.769Z,25.92
2019-04-26T04:57:53.147Z,31.87
2019-04-26T05:00:56.061Z,25.20
2019-04-26T05:03:47.025Z,28.77
2019-04-26T05:06:35.809Z,29.35
2019-04-26T05:09:17.106Z,31.52
2019-04-26T05:12:07.943Z,21.97
2019-04-26T05:15:04.661Z,24.85
2019-04-26T05:17:43.475Z,25.57
2019-04-26T05:20:34.904Z,28.75
2019-04-26T05:23:42.541Z,32.15
2019-04-26T05:26:31.556Z,23.32
2019-04-26T05:29:42.123Z,23.30
2019-04-26T05:32:20.958Z,21.05
2019-04-26T05:35:06.029Z,27.00
2019-04-26T05:38:17.998Z,26.17
2019-04-26T05:41:03.195Z,33.20
2019-04-26T05:44:18.571Z,26.48
2019-04-26T05:47:31.094Z,22.87
2019-04-26T05:50:38.785Z,24.37
2019-04-26T05:53:44.755Z,25.17
2019-04-26T05:56:40.158Z,23.40
2019-04-26T05:59:46.589Z,21.23
2019-04-26T06:02:32.622Z,23.57
2019-04-26T06:05:25.183Z,28.35
2019-04-26T06:08:30.660Z,26.12
2019-04-26T06:11:02.705Z,23.52
2019-04-26T06:16:49.316Z,32.35
2019-04-26T06:19:57.327Z,24.23
2019-04-26T06:22:36.242Z,24.18
2019-04-26T06:25:31.348Z,22.55
2019-04-26T06:28:20.768Z,22.87
2019-04-26T06:31:03.493Z,17.62
2019-04-26T06:33:42.469Z,30.62
2019-04-26T06:36:23.139Z,22.55
2019-04-26T06:39:21.407Z,28.87
2019-04-26T06:42:09.600Z,22.52
2019-04-26T06:45:21.449Z,22.82
2019-04-26T06:48:23.014Z,22.37
2019-04-26T06:51:24.668Z,19.42
2019-04-26T06:54:07.492Z,22.95
2019-04-26T06:57:11.500Z,22.67
2019-04-26T06:59:57.418Z,29.07
2019-04-26T07:03:08.472Z,22.95
2019-04-26T07:05:47.808Z,19.52
2019-04-26T07:08:38.921Z,17.05
2019-04-26T07:11:31.466Z,20.50
2019-04-26T07:14:19.610Z,14.90
2019-04-26T07:17:04.574Z,14.55
2019-04-26T07:20:04.399Z,15.10
2019-04-26T07:23:19.556Z,18.10
2019-04-26T07:26:08.621Z,12.73
2019-04-26T07:29:13.770Z,15.13
2019-04-26T07:32:09.524Z,16.10
2019-04-26T07:35:02.711Z,17.17
2019-04-26T07:38:06.950Z,14.98
2019-04-26T07:41:15.889Z,21.37
2019-04-26T07:44:14.169Z,14.63
2019-04-26T07:47:03.084Z,22.85
2019-04-26T07:50:11.566Z,17.67
2019-04-26T07:53:17.827Z,20.35
2019-04-26T07:56:13.582Z,18.30
2019-04-26T07:59:09.355Z,15.40
2019-04-26T08:02:24.024Z,18.02
2019-04-26T08:05:05.753Z,17.85
2019-04-26T08:07:45.203Z,15.68
2019-04-26T08:10:23.411Z,12.45
2019-04-26T08:13:06.097Z,35.90
2019-04-26T08:16:06.726Z,19.23
2019-04-26T08:18:51.163Z,15.13
2019-04-26T08:21:32.036Z,14.20
2019-04-26T08:24:18.980Z,17.10
2019-04-26T08:27:18.788Z,12.68
2019-04-26T08:29:50.608Z,17.65
2019-04-26T08:32:32.061Z,14.63
2019-04-26T08:35:16.127Z,16.00
2019-04-26T08:37:52.949Z,21.52
2019-04-26T08:40:31.424Z,24.23
2019-04-26T08:43:10.882Z,15.93
2019-04-26T08:46:02.850Z,19.00
2019-04-26T08:48:47.698Z,16.37
2019-04-26T08:51:25.190Z,24.20
2019-04-26T08:54:05.752Z,22.75
2019-04-26T08:56:44.666Z,20.92
2019-04-26T08:59:26.665Z,17.30
2019-04-26T09:02:05.920Z,22.67
2019-04-26T09:04:45.644Z,22.52
2019-04-26T09:07:31.401Z,16.85
2019-04-26T09:10:11.282Z,27.95
2019-04-26T09:12:49.373Z,16.12
2019-04-26T09:15:43.271Z,19.65
2019-04-26T09:18:20.353Z,14.90
2019-04-26T09:20:56.608Z,15.60
2019-04-26T09:23:52.183Z,23.20
2019-04-26T09:26:32.545Z,21.70
2019-04-26T09:29:26.457Z,33.23
2019-04-26T09:32:16.282Z,16.42
2019-04-26T09:34:52.311Z,14.18
2019-04-26T09:37:28.462Z,15.53
2019-04-26T09:40:10.545Z,13.03
2019-04-26T09:42:48.932Z,15.83
2019-04-26T09:45:35.796Z,13.75
2019-04-26T09:48:13.279Z,18.07
2019-04-26T09:50:50.875Z,10.05
2019-04-26T09:53:26.839Z,14.98
2019-04-26T09:56:02.797Z,22.02
2019-04-26T09:58:38.743Z,10.18
2019-04-26T10:01:14.712Z,24.12
2019-04-26T10:03:51.790Z,14.38
2019-04-26T10:06:29.729Z,19.00
2019-04-26T10:09:10.353Z,18.65
2019-04-26T10:11:54.814Z,22.37
2019-04-26T10:14:32.411Z,12.35
2019-04-26T10:17:15.795Z,9.70
2019-04-26T10:19:52.170Z,17.12
2019-04-26T10:22:29.690Z,12.80
2019-04-26T10:25:16.135Z,18.85
2019-04-26T10:27:46.007Z,11.33
2019-04-26T10:30:22.384Z,9.60
2019-04-26T10:33:02.093Z,11.40
2019-04-26T10:35:36.033Z,16.62
2019-04-26T10:38:13.134Z,15.13
2019-04-26T10:40:49.077Z,13.72
2019-04-26T10:43:25.032Z,10.10
2019-04-26T10:46:00.980Z,12.45
2019-04-26T10:48:36.948Z,15.03
2019-04-26T10:51:14.433Z,9.78
2019-04-26T10:53:54.889Z,16.07
2019-04-26T10:56:35.359Z,9.80
2019-04-26T10:59:18.808Z,13.32
2019-04-26T11:01:54.850Z,17.73
2019-04-26T11:04:30.985Z,8.50
2019-04-26T11:07:07.067Z,13.58
2019-04-26T11:09:43.131Z,11.48
2019-04-26T11:12:20.367Z,10.03
2019-04-26T11:14:57.032Z,12.95
2019-04-26T11:17:33.251Z,14.60
2019-04-26T11:20:10.551Z,11.70
2019-04-26T11:22:47.112Z,9.18
2019-04-26T11:25:24.625Z,9.13
2019-04-26T11:28:00.762Z,9.98
2019-04-26T11:30:36.710Z,8.60
2019-04-26T11:33:12.866Z,10.08
2019-04-26T11:35:48.936Z,12.23
2019-04-26T11:38:26.883Z,13.28
2019-04-26T11:41:06.328Z,11.78
2019-04-26T11:43:40.079Z,13.88
2019-04-26T11:46:16.347Z,9.23
2019-04-26T11:48:58.891Z,12.37
2019-04-26T11:51:29.992Z,11.18
2019-04-26T11:54:05.961Z,11.33
2019-04-26T11:56:41.915Z,10.65
2019-04-26T11:59:17.858Z,13.00
2019-04-26T12:01:53.815Z,12.43
2019-04-26T12:04:31.325Z,12.33
2019-04-26T12:07:11.975Z,14.78
2019-04-26T12:09:49.501Z,9.07
2019-04-26T12:12:25.721Z,14.10
2019-04-26T12:15:03.876Z,12.28
2019-04-26T12:17:40.942Z,13.53
2019-04-26T12:20:16.889Z,8.75
2019-04-26T12:22:52.846Z,11.78
2019-04-26T12:25:31.079Z,13.05
2019-04-26T12:28:07.384Z,11.15
2019-04-26T12:30:43.480Z,10.48
2019-04-26T12:33:19.425Z,14.23
2019-04-26T12:35:57.063Z,10.85
2019-04-26T12:38:33.089Z,5.97
2019-04-26T12:41:11.418Z,7.10
2019-04-26T12:43:46.628Z,7.95
2019-04-26T12:46:36.205Z,12.33
2019-04-26T12:49:12.276Z,13.13
2019-04-26T12:51:48.838Z,10.45
2019-04-26T12:54:25.923Z,17.05
2019-04-26T12:57:05.823Z,19.80
2019-04-26T12:59:44.453Z,12.40
2019-04-26T13:02:20.970Z,8.43
2019-04-26T13:04:54.864Z,11.78
2019-04-26T13:07:30.833Z,10.93
2019-04-26T13:10:12.519Z,8.03
2019-04-26T13:12:53.176Z,17.12
2019-04-26T13:15:51.799Z,16.30
2019-04-26T13:18:27.941Z,12.75
2019-04-26T13:21:04.379Z,13.03
2019-04-26T13:23:40.565Z,10.10
2019-04-26T13:26:16.524Z,13.38
2019-04-26T13:28:56.977Z,12.43
2019-04-26T13:31:31.723Z,12.00
2019-04-26T13:34:08.076Z,10.63
2019-04-26T13:36:44.018Z,14.03
2019-04-26T13:39:22.393Z,20.88
2019-04-26T13:42:04.512Z,11.73
2019-04-26T13:44:56.473Z,13.25
2019-04-26T13:47:35.063Z,19.23
2019-04-26T13:50:15.463Z,14.55
2019-04-26T13:52:51.402Z,18.73
2019-04-26T13:55:29.440Z,15.78
2019-04-26T13:58:06.410Z,21.33
2019-04-26T14:00:43.566Z,15.63
2019-04-26T14:03:20.154Z,21.40
2019-04-26T14:05:56.098Z,13.70
2019-04-26T14:08:32.067Z,14.60
2019-04-26T14:11:08.112Z,18.35
2019-04-26T14:13:44.081Z,18.55
2019-04-26T14:16:21.166Z,19.10
2019-04-26T14:18:57.736Z,22.77
2019-04-26T14:21:34.830Z,21.68
2019-04-26T14:24:24.065Z,18.65
2019-04-26T14:27:04.143Z,18.70
2019-04-26T14:29:40.196Z,27.60
2019-04-26T14:32:16.155Z,20.68
2019-04-26T14:34:52.212Z,49.88
2019-04-26T14:37:29.183Z,16.80
2019-04-26T14:40:16.607Z,25.08
2019-04-26T14:42:47.201Z,22.80
2019-04-26T14:45:24.139Z,19.52
2019-04-26T14:48:03.982Z,21.20
2019-04-26T14:50:38.178Z,16.95
2019-04-26T14:53:14.071Z,27.30
2019-04-26T14:55:51.188Z,27.60
2019-04-26T14:58:30.092Z,27.27
2019-04-26T15:01:07.021Z,25.05
2019-04-26T15:04:00.586Z,19.52
2019-04-26T15:06:38.197Z,22.62
2019-04-26T15:09:19.820Z,27.95
2019-04-26T15:11:58.610Z,27.50
2019-04-26T15:14:31.221Z,20.55
2019-04-26T15:17:07.346Z,31.85
2019-04-26T15:19:45.919Z,29.87
2019-04-26T15:22:20.988Z,19.73
2019-04-26T15:24:57.266Z,24.07
2019-04-26T15:27:36.272Z,24.05
2019-04-26T15:30:11.326Z,27.22
2019-04-26T15:32:47.273Z,21.57
2019-04-26T15:35:23.325Z,28.38
2019-04-26T15:38:01.437Z,24.52
2019-04-26T15:40:42.480Z,18.23
2019-04-26T15:43:20.121Z,19.80
2019-04-26T15:46:14.031Z,27.17
2019-04-26T15:49:09.523Z,24.40
2019-04-26T15:51:46.079Z,25.72
2019-04-26T15:54:23.032Z,20.05
2019-04-26T15:56:59.009Z,22.82
2019-04-26T15:59:34.979Z,14.78
2019-04-26T16:02:12.440Z,19.65
2019-04-26T16:04:51.365Z,17.48
2019-04-26T16:07:28.793Z,17.20
2019-04-26T16:10:04.739Z,22.40
2019-04-26T16:12:42.249Z,26.62
2019-04-26T16:15:18.279Z,24.63
2019-04-26T16:17:54.238Z,24.10
2019-04-26T16:20:37.414Z,25.12
2019-04-26T16:23:09.016Z,24.90
2019-04-26T16:25:44.973Z,20.85
2019-04-26T16:28:26.570Z,23.77
2019-04-26T16:31:22.602Z,29.00
2019-04-26T16:34:04.105Z,36.75
2019-04-26T16:36:43.849Z,28.42
2019-04-26T16:39:16.089Z,19.48
2019-04-26T16:41:52.495Z,22.62
2019-04-26T16:44:31.411Z,23.87
2019-04-26T16:47:07.439Z,24.82
2019-04-26T16:49:46.250Z,19.67
2019-04-26T16:52:21.110Z,26.10
2019-04-26T16:55:02.323Z,28.87
2019-04-26T16:57:35.167Z,23.18
2019-04-26T17:00:15.800Z,22.13
2019-04-26T17:02:49.814Z,19.92
2019-04-26T17:05:46.904Z,25.80
2019-04-26T17:08:05.144Z,23.83
2019-04-26T17:10:42.041Z,35.60
2019-04-26T17:13:18.050Z,30.48
2019-04-26T17:15:58.235Z,25.35
2019-04-26T17:18:32.391Z,27.90
2019-04-26T17:21:08.461Z,24.40
2019-04-26T17:23:52.984Z,19.67
2019-04-26T17:26:36.437Z,28.30
2019-04-26T17:29:11.835Z,24.07
2019-04-26T17:31:47.728Z,28.98
2019-04-26T17:34:28.860Z,30.65
2019-04-26T17:37:02.474Z,32.67
2019-04-26T17:39:40.681Z,29.00
2019-04-26T17:42:16.705Z,24.18
2019-04-26T17:44:52.622Z,27.35
2019-04-26T17:47:34.650Z,25.52
2019-04-26T17:50:08.529Z,31.17
2019-04-26T17:52:44.447Z,25.88
2019-04-26T17:55:20.463Z,32.42
2019-04-26T17:58:09.733Z,37.98
2019-04-26T18:00:45.580Z,40.20
2019-04-26T18:03:14.850Z,31.48
2019-04-26T18:05:56.988Z,27.62
2019-04-26T18:08:41.061Z,28.38
2019-04-26T18:11:04.673Z,29.35
2019-04-26T18:13:40.711Z,35.40
2019-04-26T18:16:17.748Z,35.05
2019-04-26T18:19:13.073Z,34.85
2019-04-26T18:22:08.913Z,35.25
2019-04-26T18:24:44.978Z,28.42
2019-04-26T18:27:20.890Z,26.77
2019-04-26T18:29:59.810Z,33.55
2019-04-26T18:32:42.132Z,34.25
2019-04-26T18:35:16.642Z,30.92
2019-04-26T18:37:50.728Z,33.65
2019-04-26T18:40:26.682Z,31.05
2019-04-26T18:43:03.456Z,36.90
2019-04-26T18:45:39.556Z,34.65
2019-04-26T18:48:15.475Z,28.98
2019-04-26T18:50:51.383Z,29.50
2019-04-26T18:53:39.390Z,32.50
2019-04-26T18:56:14.036Z,38.17
2019-04-26T18:58:51.552Z,28.80
2019-04-26T19:01:27.551Z,32.53
2019-04-26T19:04:09.871Z,34.78
2019-04-26T19:06:42.323Z,32.35
2019-04-26T19:09:21.230Z,36.63
2019-04-26T19:11:57.602Z,41.45
2019-04-26T19:14:49.753Z,36.33
2019-04-26T19:17:33.832Z,35.50
2019-04-26T19:20:11.643Z,36.77
2019-04-26T19:22:50.397Z,40.23
2019-04-26T19:25:29.857Z,42.03
2019-04-26T19:28:08.189Z,43.00
2019-04-26T19:30:49.514Z,36.23
2019-04-26T19:33:21.806Z,38.30
2019-04-26T19:35:57.808Z,32.48
2019-04-26T19:38:33.816Z,36.45
2019-04-26T19:41:09.728Z,42.95
2019-04-26T19:43:46.287Z,33.98
2019-04-26T19:46:25.278Z,49.88
2019-04-26T19:49:19.060Z,30.55
2019-04-26T19:52:14.856Z,48.15
2019-04-26T19:54:53.029Z,39.42
2019-04-26T19:57:47.734Z,32.58
2019-04-26T20:00:25.073Z,36.73
2019-04-26T20:03:01.642Z,38.13
2019-04-26T20:05:40.593Z,52.23
2019-04-26T20:08:15.324Z,43.70
2019-04-26T20:10:52.085Z,47.80
2019-04-26T20:13:28.063Z,43.83
2019-04-26T20:16:06.053Z,55.45
2019-04-26T20:18:42.134Z,59.55
2019-04-26T20:21:18.070Z,73.37
2019-04-26T20:23:54.644Z,69.47
2019-04-26T20:26:31.500Z,57.65
2019-04-26T20:29:10.189Z,56.70
2019-04-26T20:31:47.832Z,56.25
2019-04-26T20:34:23.811Z,46.13
2019-04-26T20:37:01.391Z,42.90
2019-04-26T20:39:38.529Z,44.00
2019-04-26T20:42:14.593Z,44.60
2019-04-26T20:44:53.111Z,45.08
2019-04-26T20:47:28.240Z,47.98
2019-04-26T20:50:05.715Z,40.90
2019-04-26T20:52:41.692Z,40.30
2019-04-26T20:55:17.583Z,49.27
2019-04-26T20:57:53.604Z,42.80
2019-04-26T21:00:31.518Z,44.90
2019-04-26T21:03:20.135Z,50.28
2019-04-26T21:05:46.619Z,47.20
2019-04-26T21:08:25.770Z,44.00
2019-04-26T21:11:01.705Z,42.80
2019-04-26T21:13:38.251Z,47.10
2019-04-26T21:16:15.564Z,39.60
2019-04-26T21:18:52.352Z,40.75
2019-04-26T21:21:28.481Z,40.12
2019-04-26T21:24:05.843Z,45.05
2019-04-26T21:26:46.632Z,35.75
2019-04-26T21:29:28.324Z,35.80
2019-04-26T21:32:08.886Z,44.65
2019-04-26T21:34:50.487Z,49.73
2019-04-26T21:37:28.487Z,41.50
2019-04-26T21:40:07.345Z,43.35
2019-04-26T21:42:45.074Z,37.73
2019-04-26T21:45:28.463Z,48.23
2019-04-26T21:48:02.669Z,47.53
2019-04-26T21:50:39.051Z,40.28
2019-04-26T21:53:14.868Z,44.98
2019-04-26T21:55:50.818Z,38.33
2019-04-26T21:58:26.781Z,42.20
2019-04-26T22:01:04.467Z,49.55
2019-04-26T22:03:47.413Z,36.00
2019-04-26T22:06:24.487Z,38.85
2019-04-26T22:09:02.545Z,39.40
2019-04-26T22:11:38.506Z,33.70
2019-04-26T22:14:20.052Z,33.10
2019-04-26T22:17:02.318Z,34.98
2019-04-26T22:19:49.862Z,39.27
2019-04-26T22:22:27.354Z,33.73
2019-04-26T22:25:05.043Z,29.65
2019-04-26T22:27:40.951Z,28.85
2019-04-26T22:30:22.725Z,24.75
2019-04-26T22:32:58.532Z,30.62
2019-04-26T22:35:34.601Z,26.97
2019-04-26T22:38:10.561Z,26.02
2019-04-26T22:40:48.534Z,27.00
2019-04-26T22:43:28.528Z,25.92
2019-04-26T22:46:14.106Z,26.77
2019-04-26T22:48:54.645Z,22.75
2019-04-26T22:51:33.514Z,15.68
2019-04-26T22:54:07.284Z,18.87
2019-04-26T22:56:43.830Z,14.60
2019-04-26T22:59:20.850Z,15.60
2019-04-26T23:01:56.795Z,16.70
2019-04-26T23:04:33.056Z,15.50
2019-04-26T23:07:10.859Z,17.92
2019-04-26T23:09:51.777Z,15.80
2019-04-26T23:12:33.419Z,10.50
2019-04-26T23:15:30.142Z,14.60
2019-04-26T23:18:14.014Z,16.52
2019-04-26T23:20:51.103Z,21.42
2019-04-26T23:23:27.044Z,13.78
2019-04-26T23:26:06.304Z,15.30
2019-04-26T23:28:40.915Z,13.58
2019-04-26T23:31:16.861Z,17.87
2019-04-26T23:33:53.939Z,15.18
2019-04-26T23:36:30.112Z,11.97
2019-04-26T23:39:07.717Z,16.25
2019-04-26T23:41:45.303Z,20.23
2019-04-26T23:44:23.067Z,14.33
2019-04-26T23:47:01.209Z,19.50
2019-04-26T23:49:36.654Z,21.10
2019-04-26T23:52:14.569Z,19.23
2019-04-26T23:54:50.402Z,20.60
2019-04-26T23:57:27.400Z,17.40
